Maymont, Canada
Current Conditions -  °F | °C
As of 5:00 PM on Friday 24 Oct 2014 (Local Time) from CYQW Reporting Station
Clear Clear  
Wind Chill: 50°   Ceiling: Unl
Heat Index: 50°   Visibility: 9mi
Dew Point: 23°   Wind: 22mph
Humidity: 35%   Direction: 280°W
Pressure: 29.85"   Gusts: 29mph
Location:  52.57°N, 107.72°W
Report Text: CYQW 242300Z AUTO 28019G25KT 9SM CLR 10/M05 A2985 RMK SLP126
Loading
Personal Weather Stations






























Interactive Weather Map
Tropical Storm Tracking
New forecast layout! Learn more

10-Day Weather Forecast

Advertisements
Track Severe Weather on mobile